Time;durP1;ratioP1;P1;durP2;ratioP2;P2;SDS_P1;SDS_P2;PMS_P1;PMS_P2;Temp;Humidity;BMP_temperature;BMP_pressure;BME280_temperature;BME280_humidity;BME280_pressure;Samples;Min_cycle;Max_cycle;Signal;HPM_P1;HPM_P2
2021/11/15 00:02:24;;;;;;;;;50.75;41.00;;;;;;;;5038177;28;45448;-77
2021/11/15 00:04:50;;;;;;;;;53.50;44.50;;;;;;;;5038120;28;45367;-78
2021/11/15 00:07:15;;;;;;;;;51.50;41.75;;;;;;;;5037304;28;45445;-79
2021/11/15 00:09:42;;;;;;;;;48.00;40.75;;;;;;;;5036652;28;47241;-78
2021/11/15 00:12:07;;;;;;;;;49.25;40.50;;;;;;;;5036755;28;45481;-79
2021/11/15 00:14:33;;;;;;;;;47.75;37.25;;;;;;;;5037030;28;45414;-77
2021/11/15 00:16:58;;;;;;;;;37.75;34.00;;;;;;;;5037346;28;45211;-79
2021/11/15 00:19:23;;;;;;;;;39.50;35.75;;;;;;;;5036325;28;45606;-78
2021/11/15 00:21:48;;;;;;;;;46.75;37.50;;;;;;;;5036648;28;45529;-77
2021/11/15 00:24:14;;;;;;;;;49.00;37.50;;;;;;;;5036755;28;45388;-77
2021/11/15 00:26:39;;;;;;;;;45.50;38.50;;;;;;;;5037318;28;45579;-77
2021/11/15 00:29:04;;;;;;;;;45.25;38.25;;;;;;;;5038016;28;46039;-77
2021/11/15 00:31:29;;;;;;;;;42.25;35.25;;;;;;;;5036817;28;45348;-79
2021/11/15 00:33:54;;;;;;;;;54.00;41.00;;;;;;;;5036714;28;45379;-77
2021/11/15 00:36:20;;;;;;;;;43.50;37.00;;;;;;;;5036760;28;45503;-78
2021/11/15 00:38:45;;;;;;;;;42.50;36.25;;;;;;;;5036612;28;45916;-77
2021/11/15 00:41:11;;;;;;;;;42.75;37.00;;;;;;;;5037333;28;45240;-77
2021/11/15 00:43:37;;;;;;;;;38.50;35.25;;;;;;;;5036976;28;45570;-77
2021/11/15 00:46:02;;;;;;;;;54.00;41.25;;;;;;;;5036578;28;45502;-78
2021/11/15 00:48:28;;;;;;;;;42.00;36.00;;;;;;;;5036558;28;47057;-77
2021/11/15 00:50:53;;;;;;;;;46.50;37.75;;;;;;;;5036731;28;45288;-77
2021/11/15 00:53:18;;;;;;;;;43.50;35.25;;;;;;;;5037106;28;45442;-77
2021/11/15 00:55:43;;;;;;;;;47.50;38.00;;;;;;;;5037243;28;45519;-77
2021/11/15 00:58:09;;;;;;;;;48.25;39.25;;;;;;;;5037582;28;45319;-79
2021/11/15 01:00:37;;;;;;;;;46.50;36.00;;;;;;;;5036422;28;45343;-78
2021/11/15 01:03:06;;;;;;;;;35.50;30.25;;;;;;;;5037227;28;45316;-78
2021/11/15 01:05:32;;;;;;;;;48.00;35.50;;;;;;;;5037568;28;45233;-78
2021/11/15 01:07:57;;;;;;;;;43.75;34.25;;;;;;;;5036582;28;46152;-79
2021/11/15 01:10:22;;;;;;;;;41.75;36.00;;;;;;;;5036587;28;45396;-79
2021/11/15 01:12:49;;;;;;;;;41.00;31.75;;;;;;;;5037599;28;45237;-79
2021/11/15 01:15:16;;;;;;;;;37.25;34.75;;;;;;;;5037127;28;45457;-78
2021/11/15 01:17:42;;;;;;;;;39.00;34.25;;;;;;;;5035636;28;46029;-78
2021/11/15 01:20:09;;;;;;;;;46.00;36.50;;;;;;;;5036929;28;45375;-78
2021/11/15 01:22:34;;;;;;;;;41.50;37.00;;;;;;;;5035870;28;45363;-78
2021/11/15 01:25:00;;;;;;;;;37.50;35.00;;;;;;;;5036080;28;45589;-78
2021/11/15 01:27:25;;;;;;;;;43.75;35.25;;;;;;;;5035501;28;45552;-78
2021/11/15 01:29:50;;;;;;;;;35.75;33.00;;;;;;;;5017829;28;45511;-79
2021/11/15 01:32:16;;;;;;;;;35.00;31.50;;;;;;;;5036784;28;47149;-78
2021/11/15 01:34:41;;;;;;;;;40.25;36.00;;;;;;;;5035744;28;45301;-78
2021/11/15 01:37:06;;;;;;;;;34.25;32.25;;;;;;;;5035186;28;46334;-77
2021/11/15 01:39:32;;;;;;;;;40.00;33.00;;;;;;;;5036055;28;45366;-79
2021/11/15 01:41:57;;;;;;;;;36.50;34.25;;;;;;;;5035716;28;45337;-78
2021/11/15 01:44:22;;;;;;;;;38.50;33.00;;;;;;;;5017922;28;45488;-78
2021/11/15 01:46:48;;;;;;;;;40.75;33.25;;;;;;;;5035634;28;47437;-77
2021/11/15 01:49:13;;;;;;;;;42.75;32.25;;;;;;;;5035351;28;45289;-78
2021/11/15 01:51:39;;;;;;;;;43.25;35.25;;;;;;;;5034363;28;45439;-77
2021/11/15 01:54:04;;;;;;;;;35.75;34.25;;;;;;;;5036089;28;45400;-77
2021/11/15 01:56:29;;;;;;;;;43.25;34.75;;;;;;;;5035417;28;45526;-76
2021/11/15 01:58:54;;;;;;;;;50.50;36.25;;;;;;;;5035839;28;45351;-78
2021/11/15 02:01:20;;;;;;;;;44.25;36.00;;;;;;;;5035357;28;45442;-77
2021/11/15 02:03:45;;;;;;;;;41.00;35.00;;;;;;;;5035091;28;45507;-77
2021/11/15 02:06:11;;;;;;;;;38.25;33.75;;;;;;;;5034796;28;46161;-77
2021/11/15 02:08:37;;;;;;;;;37.75;33.50;;;;;;;;5035168;28;45488;-78
2021/11/15 02:11:02;;;;;;;;;36.25;32.00;;;;;;;;5035689;28;45316;-77
2021/11/15 02:13:27;;;;;;;;;38.75;32.75;;;;;;;;5034897;28;46879;-77
2021/11/15 02:15:53;;;;;;;;;49.75;36.75;;;;;;;;5035074;28;46347;-78
2021/11/15 02:18:21;;;;;;;;;38.25;34.00;;;;;;;;5034851;28;45369;-78
2021/11/15 02:20:51;;;;;;;;;42.50;34.50;;;;;;;;5020046;28;45451;-79
2021/11/15 02:23:18;;;;;;;;;41.25;34.25;;;;;;;;5014153;28;45342;-78
2021/11/15 02:25:45;;;;;;;;;38.25;33.50;;;;;;;;5035073;28;46203;-78
2021/11/15 02:28:10;;;;;;;;;41.75;34.50;;;;;;;;5035278;28;45367;-79
2021/11/15 02:30:35;;;;;;;;;38.75;35.00;;;;;;;;5035291;28;45501;-78
2021/11/15 02:33:01;;;;;;;;;39.50;36.00;;;;;;;;5035141;28;45370;-77
2021/11/15 02:35:26;;;;;;;;;37.75;33.50;;;;;;;;5034810;28;46053;-78
2021/11/15 02:37:52;;;;;;;;;36.50;33.50;;;;;;;;5034884;28;45441;-77
2021/11/15 02:40:20;;;;;;;;;39.25;33.25;;;;;;;;5034256;28;45272;-77
2021/11/15 02:42:47;;;;;;;;;40.25;34.25;;;;;;;;5034238;28;45401;-77
2021/11/15 02:45:12;;;;;;;;;42.75;37.00;;;;;;;;5034022;28;47082;-77
2021/11/15 02:47:37;;;;;;;;;41.50;34.75;;;;;;;;5033930;28;45398;-77
2021/11/15 02:50:04;;;;;;;;;40.75;33.75;;;;;;;;5034362;28;45347;-77
2021/11/15 02:52:29;;;;;;;;;39.50;33.75;;;;;;;;5033986;28;45476;-79
2021/11/15 02:54:57;;;;;;;;;47.75;38.00;;;;;;;;5034088;28;47206;-78
2021/11/15 02:57:23;;;;;;;;;33.50;28.25;;;;;;;;5033995;28;45332;-79
2021/11/15 02:59:48;;;;;;;;;48.75;38.50;;;;;;;;5034080;28;45627;-78
2021/11/15 03:02:14;;;;;;;;;43.75;36.00;;;;;;;;5034943;28;45340;-78
2021/11/15 03:04:40;;;;;;;;;40.50;34.00;;;;;;;;5036863;28;45400;-78
2021/11/15 03:07:05;;;;;;;;;41.00;34.00;;;;;;;;5037210;28;45456;-78
2021/11/15 03:09:30;;;;;;;;;33.75;31.50;;;;;;;;5039226;28;45587;-79
2021/11/15 03:11:56;;;;;;;;;51.50;39.25;;;;;;;;5039349;28;45356;-79
2021/11/15 03:14:21;;;;;;;;;40.00;34.00;;;;;;;;5038121;28;46057;-79
2021/11/15 03:16:46;;;;;;;;;40.25;35.75;;;;;;;;5037803;28;45438;-79
2021/11/15 03:19:12;;;;;;;;;44.00;36.50;;;;;;;;5037056;28;49275;-79
2021/11/15 03:21:37;;;;;;;;;47.25;36.50;;;;;;;;5037368;28;45541;-77
2021/11/15 03:24:02;;;;;;;;;40.00;32.50;;;;;;;;5037106;28;46195;-78
2021/11/15 03:26:27;;;;;;;;;43.50;35.25;;;;;;;;5037236;28;45557;-78
2021/11/15 03:28:53;;;;;;;;;41.75;34.75;;;;;;;;5037755;28;45308;-78
2021/11/15 03:31:21;;;;;;;;;51.75;37.25;;;;;;;;5036571;28;45372;-79
2021/11/15 03:33:48;;;;;;;;;38.25;34.00;;;;;;;;5036870;28;47192;-78
2021/11/15 03:36:13;;;;;;;;;40.25;35.00;;;;;;;;5036919;28;45304;-78
2021/11/15 03:38:40;;;;;;;;;39.00;34.75;;;;;;;;5036673;28;45226;-78
2021/11/15 03:41:05;;;;;;;;;44.00;35.50;;;;;;;;5037351;28;45229;-77
2021/11/15 03:43:31;;;;;;;;;45.25;35.25;;;;;;;;5036534;28;46093;-79
2021/11/15 03:45:57;;;;;;;;;37.75;33.00;;;;;;;;5036376;28;45429;-79
2021/11/15 03:48:22;;;;;;;;;43.00;36.00;;;;;;;;5036437;28;45399;-78
2021/11/15 03:50:48;;;;;;;;;46.25;36.00;;;;;;;;5036848;28;45297;-78
2021/11/15 03:53:14;;;;;;;;;41.75;33.75;;;;;;;;5032870;28;47001;-78
2021/11/15 03:55:40;;;;;;;;;41.75;36.00;;;;;;;;5018544;28;45486;-78
2021/11/15 03:58:05;;;;;;;;;45.00;36.25;;;;;;;;5036602;28;45340;-78
2021/11/15 04:00:36;;;;;;;;;40.50;34.25;;;;;;;;5035903;28;45443;-78
2021/11/15 04:03:07;;;;;;;;;42.75;36.00;;;;;;;;5036409;28;45410;-77
2021/11/15 04:05:39;;;;;;;;;38.75;35.75;;;;;;;;5036558;28;45325;-78
2021/11/15 04:08:05;;;;;;;;;40.50;35.00;;;;;;;;5019382;28;45556;-77
2021/11/15 04:10:33;;;;;;;;;43.50;34.75;;;;;;;;5036441;28;45380;-78
2021/11/15 04:13:04;;;;;;;;;45.50;37.75;;;;;;;;5036021;28;45423;-77
2021/11/15 04:15:29;;;;;;;;;47.25;35.50;;;;;;;;5035482;28;45319;-77
2021/11/15 04:17:55;;;;;;;;;47.50;35.50;;;;;;;;5036390;28;45272;-78
2021/11/15 04:20:21;;;;;;;;;43.25;36.75;;;;;;;;5036407;28;45523;-78
2021/11/15 04:22:46;;;;;;;;;39.00;33.75;;;;;;;;5036265;28;45992;-78
2021/11/15 04:25:11;;;;;;;;;46.00;37.00;;;;;;;;5035749;28;45569;-78
2021/11/15 04:27:37;;;;;;;;;44.25;36.50;;;;;;;;5035607;28;45250;-78
2021/11/15 04:30:03;;;;;;;;;39.00;36.00;;;;;;;;5035825;28;45440;-78
2021/11/15 04:32:28;;;;;;;;;48.25;37.25;;;;;;;;5035746;28;45659;-77
2021/11/15 04:34:53;;;;;;;;;42.75;37.75;;;;;;;;5036102;28;45241;-77
2021/11/15 04:37:19;;;;;;;;;42.75;38.50;;;;;;;;5035352;28;45355;-77
2021/11/15 04:39:44;;;;;;;;;50.50;38.25;;;;;;;;5035704;28;45509;-78
2021/11/15 04:42:10;;;;;;;;;44.00;35.25;;;;;;;;5035891;28;46187;-78
2021/11/15 04:44:35;;;;;;;;;41.25;33.00;;;;;;;;5035198;28;45449;-78
2021/11/15 04:47:00;;;;;;;;;47.75;37.50;;;;;;;;5036061;28;45417;-78
2021/11/15 04:49:25;;;;;;;;;47.50;38.00;;;;;;;;5035613;28;45773;-76
2021/11/15 04:51:51;;;;;;;;;39.50;35.25;;;;;;;;5035581;28;45981;-77
2021/11/15 04:54:17;;;;;;;;;50.75;39.25;;;;;;;;5035433;28;45430;-79
2021/11/15 04:56:43;;;;;;;;;39.50;35.25;;;;;;;;5035513;28;45248;-78
2021/11/15 04:59:08;;;;;;;;;50.00;39.25;;;;;;;;5035598;28;45572;-78
2021/11/15 05:01:34;;;;;;;;;43.50;36.00;;;;;;;;5034944;28;46042;-78
2021/11/15 05:03:59;;;;;;;;;43.25;36.75;;;;;;;;5017852;28;45483;-78
2021/11/15 05:06:24;;;;;;;;;44.25;37.00;;;;;;;;5018188;28;45474;-78
2021/11/15 05:08:50;;;;;;;;;48.50;37.50;;;;;;;;5035401;28;45517;-78
2021/11/15 05:11:15;;;;;;;;;41.50;36.00;;;;;;;;5035558;28;45354;-78
2021/11/15 05:13:40;;;;;;;;;49.50;36.00;;;;;;;;5034257;28;46140;-77
2021/11/15 05:16:05;;;;;;;;;44.50;37.00;;;;;;;;5016677;28;45298;-79
2021/11/15 05:18:31;;;;;;;;;43.00;33.75;;;;;;;;5034978;28;45507;-77
2021/11/15 05:20:56;;;;;;;;;45.75;38.00;;;;;;;;5034741;28;45406;-79
2021/11/15 05:23:21;;;;;;;;;43.75;36.25;;;;;;;;5034430;28;45430;-76
2021/11/15 05:25:47;;;;;;;;;29.00;22.00;;;;;;;;5033629;28;45651;-75
2021/11/15 05:28:12;;;;;;;;;41.50;34.50;;;;;;;;5034352;28;45352;-75
2021/11/15 05:30:37;;;;;;;;;39.25;33.00;;;;;;;;5034505;28;46154;-75
2021/11/15 05:33:02;;;;;;;;;52.00;40.75;;;;;;;;5033736;28;45283;-74
2021/11/15 05:35:28;;;;;;;;;46.50;36.25;;;;;;;;5034676;28;45323;-74
2021/11/15 05:37:54;;;;;;;;;42.25;35.25;;;;;;;;5034544;28;45554;-77
2021/11/15 05:40:20;;;;;;;;;37.75;33.00;;;;;;;;5033807;28;45499;-72
2021/11/15 05:42:45;;;;;;;;;37.50;32.50;;;;;;;;5033576;28;45420;-71
2021/11/15 05:45:11;;;;;;;;;38.50;32.75;;;;;;;;5034206;28;45652;-71
2021/11/15 05:47:37;;;;;;;;;45.00;37.25;;;;;;;;5034087;28;45402;-73
2021/11/15 05:50:05;;;;;;;;;55.00;45.50;;;;;;;;5034352;28;46034;-72
2021/11/15 05:52:31;;;;;;;;;49.50;39.75;;;;;;;;5033630;28;45680;-73
2021/11/15 05:54:56;;;;;;;;;48.75;37.50;;;;;;;;5034178;28;45557;-73
2021/11/15 05:57:21;;;;;;;;;42.50;35.75;;;;;;;;5033516;28;45404;-72
2021/11/15 05:59:47;;;;;;;;;39.00;34.25;;;;;;;;5033684;28;45319;-73
2021/11/15 06:02:12;;;;;;;;;50.00;35.00;;;;;;;;5034265;28;45461;-77
2021/11/15 06:04:37;;;;;;;;;45.00;38.75;;;;;;;;5033675;28;45253;-76
2021/11/15 06:07:02;;;;;;;;;46.75;36.00;;;;;;;;5033564;28;45561;-75
2021/11/15 06:09:28;;;;;;;;;50.25;36.50;;;;;;;;5033691;28;46110;-75
2021/11/15 06:11:53;;;;;;;;;44.25;36.25;;;;;;;;5033147;28;45389;-76
2021/11/15 06:14:18;;;;;;;;;43.50;35.50;;;;;;;;5033690;28;45402;-76
2021/11/15 06:16:44;;;;;;;;;49.25;40.25;;;;;;;;5033859;28;45293;-76
2021/11/15 06:19:09;;;;;;;;;43.25;35.50;;;;;;;;5033317;28;46132;-76
2021/11/15 06:21:34;;;;;;;;;48.75;39.50;;;;;;;;5033124;28;45398;-76
2021/11/15 06:24:01;;;;;;;;;43.50;35.50;;;;;;;;5032968;28;45791;-74
2021/11/15 06:26:27;;;;;;;;;47.25;35.00;;;;;;;;5032713;28;45336;-76
2021/11/15 06:28:52;;;;;;;;;51.75;39.75;;;;;;;;5033255;28;47319;-77
2021/11/15 06:31:19;;;;;;;;;38.75;33.25;;;;;;;;5032933;28;45330;-75
2021/11/15 06:33:49;;;;;;;;;44.50;35.50;;;;;;;;5032979;28;45471;-76
2021/11/15 06:36:15;;;;;;;;;45.25;37.00;;;;;;;;5032829;28;45395;-77
2021/11/15 06:38:41;;;;;;;;;40.00;34.75;;;;;;;;5036680;28;46563;-76
2021/11/15 06:41:06;;;;;;;;;43.75;37.00;;;;;;;;5036803;28;45381;-76
2021/11/15 06:43:31;;;;;;;;;49.75;37.00;;;;;;;;5036340;28;45449;-76
2021/11/15 06:45:57;;;;;;;;;48.00;38.75;;;;;;;;5036060;28;45304;-76
2021/11/15 06:48:22;;;;;;;;;50.00;38.00;;;;;;;;5035750;28;45472;-76
2021/11/15 06:50:49;;;;;;;;;41.75;37.25;;;;;;;;5035834;28;45590;-76
2021/11/15 06:53:14;;;;;;;;;47.50;38.00;;;;;;;;5032503;28;45288;-75
2021/11/15 06:55:39;;;;;;;;;43.75;37.50;;;;;;;;5035790;28;45301;-76
2021/11/15 06:58:04;;;;;;;;;50.50;38.75;;;;;;;;5036434;28;47089;-75
2021/11/15 07:00:29;;;;;;;;;36.50;32.00;;;;;;;;5035715;28;45248;-74
2021/11/15 07:02:55;;;;;;;;;43.25;34.50;;;;;;;;5036843;28;45609;-74
2021/11/15 07:05:21;;;;;;;;;38.50;33.25;;;;;;;;5036878;28;45386;-76
2021/11/15 07:07:47;;;;;;;;;42.00;33.50;;;;;;;;5035652;28;45430;-76
2021/11/15 07:10:13;;;;;;;;;44.75;35.75;;;;;;;;5035310;28;45391;-76
2021/11/15 07:12:39;;;;;;;;;42.50;35.25;;;;;;;;5036131;28;45457;-75
2021/11/15 07:15:04;;;;;;;;;47.00;38.00;;;;;;;;5036572;28;45437;-75
2021/11/15 07:17:30;;;;;;;;;47.00;36.00;;;;;;;;5035030;28;46368;-76
2021/11/15 07:19:55;;;;;;;;;45.25;35.50;;;;;;;;5035506;28;45386;-76
2021/11/15 07:22:20;;;;;;;;;45.75;37.00;;;;;;;;5035520;28;45462;-75
2021/11/15 07:24:47;;;;;;;;;41.00;34.75;;;;;;;;5034818;28;45464;-76
2021/11/15 07:27:13;;;;;;;;;49.50;40.00;;;;;;;;5034931;28;46831;-76
2021/11/15 07:29:38;;;;;;;;;42.50;34.50;;;;;;;;5034774;28;45461;-77
2021/11/15 07:32:09;;;;;;;;;41.50;34.75;;;;;;;;5035475;28;45299;-76
2021/11/15 07:34:34;;;;;;;;;39.50;34.25;;;;;;;;5034843;28;45412;-76
2021/11/15 07:36:59;;;;;;;;;45.25;36.00;;;;;;;;5034737;28;46149;-75
2021/11/15 07:39:24;;;;;;;;;52.75;38.75;;;;;;;;5034725;28;45399;-75
2021/11/15 07:41:49;;;;;;;;;39.75;35.25;;;;;;;;5035438;28;45308;-76
2021/11/15 07:44:15;;;;;;;;;41.25;34.50;;;;;;;;5036553;28;45240;-76
2021/11/15 07:46:41;;;;;;;;;36.25;32.50;;;;;;;;5034931;28;46033;-76
2021/11/15 07:49:06;;;;;;;;;35.50;32.00;;;;;;;;5034415;28;45398;-76
2021/11/15 07:51:32;;;;;;;;;40.50;33.75;;;;;;;;5034723;28;45462;-77
2021/11/15 07:53:58;;;;;;;;;32.00;26.00;;;;;;;;5034680;28;45551;-75
2021/11/15 07:56:23;;;;;;;;;47.00;37.75;;;;;;;;5035079;28;49860;-76
2021/11/15 07:58:48;;;;;;;;;42.25;35.75;;;;;;;;5035363;28;45319;-76
2021/11/15 08:01:13;;;;;;;;;40.50;33.75;;;;;;;;5034764;28;45410;-76
2021/11/15 08:03:41;;;;;;;;;44.00;36.75;;;;;;;;5034532;28;45350;-74
2021/11/15 08:06:09;;;;;;;;;49.25;37.25;;;;;;;;5035941;28;46129;-78
2021/11/15 08:08:35;;;;;;;;;48.50;35.50;;;;;;;;5035145;28;45499;-78
2021/11/15 08:11:00;;;;;;;;;52.50;37.25;;;;;;;;5036526;28;45427;-75
2021/11/15 08:13:25;;;;;;;;;47.50;36.75;;;;;;;;5036002;28;45480;-75
2021/11/15 08:15:50;;;;;;;;;43.50;33.75;;;;;;;;5036077;28;45365;-76
2021/11/15 08:18:16;;;;;;;;;51.25;37.25;;;;;;;;5017831;28;45498;-75
2021/11/15 08:20:41;;;;;;;;;46.25;36.75;;;;;;;;5035564;28;45538;-76
2021/11/15 08:23:12;;;;;;;;;43.25;36.00;;;;;;;;5035153;28;45388;-77
2021/11/15 08:25:56;;;;;;;;;36.25;32.50;;;;;;;;5034987;28;46980;-77
2021/11/15 08:28:23;;;;;;;;;43.00;33.50;;;;;;;;5034862;28;45478;-74
2021/11/15 08:30:49;;;;;;;;;40.25;33.25;;;;;;;;5033993;28;45436;-75
2021/11/15 08:33:14;;;;;;;;;44.00;36.00;;;;;;;;5034410;28;45384;-75
2021/11/15 08:35:39;;;;;;;;;46.25;33.00;;;;;;;;5034522;28;46899;-74
2021/11/15 08:38:17;;;;;;;;;43.50;36.75;;;;;;;;5034510;28;45387;-77
2021/11/15 08:40:44;;;;;;;;;39.25;33.00;;;;;;;;5033546;28;45479;-75
2021/11/15 08:43:09;;;;;;;;;41.00;33.25;;;;;;;;5033889;28;45520;-75
2021/11/15 08:45:36;;;;;;;;;47.25;35.75;;;;;;;;5033747;28;46174;-75
2021/11/15 08:48:02;;;;;;;;;44.75;33.25;;;;;;;;5033890;28;45304;-75
2021/11/15 08:50:28;;;;;;;;;34.25;31.00;;;;;;;;5034442;28;45385;-76
2021/11/15 08:52:53;;;;;;;;;36.50;32.25;;;;;;;;5017007;28;45408;-75
2021/11/15 08:55:18;;;;;;;;;31.75;29.00;;;;;;;;5035856;28;45915;-75
2021/11/15 08:57:43;;;;;;;;;33.75;29.50;;;;;;;;5037625;28;45393;-75
2021/11/15 09:00:09;;;;;;;;;38.50;32.50;;;;;;;;5037016;28;45043;-77
2021/11/15 09:02:34;;;;;;;;;36.00;32.00;;;;;;;;5034795;28;45469;-76
2021/11/15 09:04:59;;;;;;;;;34.00;29.50;;;;;;;;5034037;28;47216;-75
2021/11/15 09:07:26;;;;;;;;;30.75;25.75;;;;;;;;5033654;28;45482;-75
2021/11/15 09:09:51;;;;;;;;;30.25;28.25;;;;;;;;5033785;28;45476;-75
2021/11/15 09:12:18;;;;;;;;;36.75;32.00;;;;;;;;5015892;28;45476;-75
2021/11/15 09:14:43;;;;;;;;;39.50;31.75;;;;;;;;5033569;28;47204;-75
2021/11/15 09:17:08;;;;;;;;;39.00;33.50;;;;;;;;5034427;28;45311;-73
2021/11/15 09:19:34;;;;;;;;;34.50;33.00;;;;;;;;5033261;28;45427;-76
2021/11/15 09:21:59;;;;;;;;;33.75;30.25;;;;;;;;5033921;28;45594;-75
2021/11/15 09:24:25;;;;;;;;;35.25;31.50;;;;;;;;5032227;28;47012;-75
2021/11/15 09:26:51;;;;;;;;;36.75;31.25;;;;;;;;5032783;28;45359;-75
2021/11/15 09:29:18;;;;;;;;;37.00;30.25;;;;;;;;5033925;28;45509;-74
2021/11/15 09:31:43;;;;;;;;;40.75;34.50;;;;;;;;5032743;28;45338;-75
2021/11/15 09:34:08;;;;;;;;;37.25;32.75;;;;;;;;5032583;28;46893;-75
2021/11/15 09:36:34;;;;;;;;;39.75;30.25;;;;;;;;5033008;28;45324;-75
2021/11/15 09:38:59;;;;;;;;;35.00;32.00;;;;;;;;5033090;28;45308;-75
2021/11/15 09:41:26;;;;;;;;;45.50;33.25;;;;;;;;5033312;28;45398;-75
2021/11/15 09:43:51;;;;;;;;;37.50;32.25;;;;;;;;5031938;28;46479;-74
2021/11/15 09:46:19;;;;;;;;;46.00;36.50;;;;;;;;5032795;28;45557;-75
2021/11/15 09:48:47;;;;;;;;;38.50;31.50;;;;;;;;5032865;28;45529;-74
2021/11/15 09:51:12;;;;;;;;;41.00;34.50;;;;;;;;5033487;28;45457;-74
2021/11/15 09:53:37;;;;;;;;;40.00;32.00;;;;;;;;5032745;28;45349;-75
2021/11/15 09:56:04;;;;;;;;;39.25;32.25;;;;;;;;5032914;28;45261;-75
2021/11/15 09:58:29;;;;;;;;;41.50;33.00;;;;;;;;5032821;28;45363;-75
2021/11/15 10:00:55;;;;;;;;;39.25;34.00;;;;;;;;5032257;28;45366;-76
2021/11/15 10:03:20;;;;;;;;;39.75;35.00;;;;;;;;5032434;28;45493;-74
2021/11/15 10:05:48;;;;;;;;;35.00;28.75;;;;;;;;5032350;28;45501;-75
2021/11/15 10:08:14;;;;;;;;;39.75;34.50;;;;;;;;5032618;28;45436;-74
2021/11/15 10:10:42;;;;;;;;;36.25;32.75;;;;;;;;5033019;28;45537;-74
2021/11/15 10:13:08;;;;;;;;;40.25;33.25;;;;;;;;5038203;28;46267;-75
2021/11/15 10:16:02;;;;;;;;;36.00;32.75;;;;;;;;5038620;28;45540;-74
2021/11/15 10:18:33;;;;;;;;;38.00;29.00;;;;;;;;5024948;28;45479;-75
2021/11/15 10:20:59;;;;;;;;;39.25;30.50;;;;;;;;5039616;28;45444;-75
2021/11/15 10:23:25;;;;;;;;;40.25;32.25;;;;;;;;5021334;28;48062;-75
2021/11/15 10:25:52;;;;;;;;;35.00;29.75;;;;;;;;5038087;28;45377;-75
2021/11/15 10:28:20;;;;;;;;;40.50;32.50;;;;;;;;5038825;28;45370;-75
2021/11/15 10:30:46;;;;;;;;;40.50;33.00;;;;;;;;5039054;28;47745;-75
2021/11/15 10:33:11;;;;;;;;;33.00;31.75;;;;;;;;5038172;28;45348;-74
2021/11/15 10:35:40;;;;;;;;;37.25;31.50;;;;;;;;5038853;28;45475;-75
2021/11/15 10:38:05;;;;;;;;;34.50;30.75;;;;;;;;5039827;28;45328;-75
2021/11/15 10:40:31;;;;;;;;;38.25;30.75;;;;;;;;5039360;28;45471;-75
2021/11/15 10:42:56;;;;;;;;;41.25;32.25;;;;;;;;5038542;28;47160;-76
2021/11/15 10:45:23;;;;;;;;;39.25;32.00;;;;;;;;5038619;28;45487;-76
2021/11/15 10:47:50;;;;;;;;;39.50;30.25;;;;;;;;5021526;28;45393;-74
2021/11/15 10:50:44;;;;;;;;;39.00;33.25;;;;;;;;5036196;28;45452;-74
2021/11/15 10:53:13;;;;;;;;;32.25;31.00;;;;;;;;5038980;28;46168;-74
2021/11/15 10:55:40;;;;;;;;;40.50;33.50;;;;;;;;5038749;28;45452;-74
2021/11/15 10:58:16;;;;;;;;;39.75;32.75;;;;;;;;5038907;28;45433;-74
2021/11/15 11:00:51;;;;;;;;;42.75;33.00;;;;;;;;5039381;28;45544;-76
2021/11/15 11:03:20;;;;;;;;;39.25;32.75;;;;;;;;5039176;28;46289;-75
2021/11/15 11:05:46;;;;;;;;;34.50;32.00;;;;;;;;5038635;28;45295;-75
2021/11/15 11:08:18;;;;;;;;;40.75;32.75;;;;;;;;5039767;28;45388;-74
2021/11/15 11:10:52;;;;;;;;;32.50;28.00;;;;;;;;5038600;28;45295;-75
2021/11/15 11:13:17;;;;;;;;;44.25;35.75;;;;;;;;5038164;28;47107;-75
2021/11/15 11:15:46;;;;;;;;;36.75;31.75;;;;;;;;5037906;28;45430;-75
2021/11/15 11:26:24;;;;;;;;;43.75;33.00;;;;;;;;5031802;28;45320;-74
2021/11/15 11:28:54;;;;;;;;;48.75;37.25;;;;;;;;5035993;28;45411;-75
2021/11/15 11:31:19;;;;;;;;;40.75;35.25;;;;;;;;5034159;28;45474;-75
2021/11/15 11:33:45;;;;;;;;;41.25;32.75;;;;;;;;5034891;28;45392;-74
2021/11/15 11:36:11;;;;;;;;;37.25;33.50;;;;;;;;5034906;28;45752;-76
2021/11/15 11:38:37;;;;;;;;;46.75;35.50;;;;;;;;5034725;28;45568;-76
2021/11/15 11:41:03;;;;;;;;;35.50;32.75;;;;;;;;5036163;28;45411;-76
2021/11/15 11:43:28;;;;;;;;;42.00;35.25;;;;;;;;5034426;28;45505;-75
2021/11/15 11:45:53;;;;;;;;;40.75;33.25;;;;;;;;5034245;28;45272;-75
2021/11/15 11:48:18;;;;;;;;;45.25;36.00;;;;;;;;5034848;28;45361;-76
2021/11/15 11:50:46;;;;;;;;;45.50;35.50;;;;;;;;5034993;28;45291;-75
2021/11/15 11:53:12;;;;;;;;;46.75;37.75;;;;;;;;5016927;28;47223;-75
2021/11/15 11:55:42;;;;;;;;;43.25;34.00;;;;;;;;5034181;28;45368;-74
2021/11/15 11:58:26;;;;;;;;;39.00;30.75;;;;;;;;5035521;28;45453;-75
2021/11/15 12:00:59;;;;;;;;;48.50;39.50;;;;;;;;5034358;28;45316;-74
2021/11/15 12:03:25;;;;;;;;;44.50;33.75;;;;;;;;5034841;28;47399;-75
2021/11/15 12:05:54;;;;;;;;;51.50;42.25;;;;;;;;5034389;28;45387;-75
2021/11/15 12:08:40;;;;;;;;;46.25;37.25;;;;;;;;5034686;28;45292;-75
2021/11/15 12:11:21;;;;;;;;;51.75;37.75;;;;;;;;5034447;28;45236;-75
2021/11/15 12:13:46;;;;;;;;;48.75;37.25;;;;;;;;5033845;28;46206;-75
2021/11/15 12:16:15;;;;;;;;;47.50;38.75;;;;;;;;5034097;28;45261;-75
2021/11/15 12:18:52;;;;;;;;;49.25;35.25;;;;;;;;5034083;28;45281;-75
2021/11/15 12:21:21;;;;;;;;;41.50;34.50;;;;;;;;5034249;28;45450;-75
2021/11/15 12:23:52;;;;;;;;;49.75;40.00;;;;;;;;5033927;28;47026;-75
2021/11/15 12:26:25;;;;;;;;;46.75;39.00;;;;;;;;5030994;28;45414;-75
2021/11/15 12:28:53;;;;;;;;;43.25;35.00;;;;;;;;5034603;28;45515;-75
2021/11/15 12:31:41;;;;;;;;;48.25;35.00;;;;;;;;5034198;28;45431;-74
2021/11/15 12:34:06;;;;;;;;;49.00;38.00;;;;;;;;5033780;28;46152;-75
2021/11/15 12:36:42;;;;;;;;;48.00;38.00;;;;;;;;5033954;28;45471;-75
2021/11/15 12:39:11;;;;;;;;;40.00;35.25;;;;;;;;5035012;28;45484;-77
2021/11/15 12:41:38;;;;;;;;;49.25;36.00;;;;;;;;5015834;28;45488;-76
2021/11/15 12:46:53;;;;;;;;;45.00;38.50;;;;;;;;5034576;28;45308;-75
2021/11/15 12:49:21;;;;;;;;;47.50;37.50;;;;;;;;5033226;28;45535;-76
2021/11/15 12:52:13;;;;;;;;;47.50;38.00;;;;;;;;5032553;28;45306;-75
2021/11/15 12:54:41;;;;;;;;;51.00;39.75;;;;;;;;5027127;28;46697;-75
2021/11/15 12:57:08;;;;;;;;;23.00;18.75;;;;;;;;5033554;28;45332;-75
2021/11/15 12:59:34;;;;;;;;;54.50;40.00;;;;;;;;5034224;28;45347;-75
2021/11/15 13:02:00;;;;;;;;;52.75;36.00;;;;;;;;5035185;28;45529;-75
2021/11/15 13:04:25;;;;;;;;;46.25;37.50;;;;;;;;5033996;28;47900;-75
2021/11/15 13:06:51;;;;;;;;;53.50;39.50;;;;;;;;5033890;28;45249;-75
2021/11/15 13:09:16;;;;;;;;;49.00;38.75;;;;;;;;5035589;28;45359;-76
2021/11/15 13:11:43;;;;;;;;;39.00;32.50;;;;;;;;5033281;28;45504;-75
2021/11/15 13:14:08;;;;;;;;;47.75;38.75;;;;;;;;5034133;28;46175;-75
2021/11/15 13:16:34;;;;;;;;;48.25;38.50;;;;;;;;5033743;28;45527;-75
2021/11/15 13:18:59;;;;;;;;;46.50;37.50;;;;;;;;5034211;28;45411;-75
2021/11/15 13:21:24;;;;;;;;;42.50;35.75;;;;;;;;5034237;28;45493;-75
2021/11/15 13:23:53;;;;;;;;;47.25;36.00;;;;;;;;5033693;28;45731;-74
2021/11/15 13:26:18;;;;;;;;;47.25;38.00;;;;;;;;5029692;28;45430;-74
2021/11/15 13:28:43;;;;;;;;;46.25;36.25;;;;;;;;5033770;28;45363;-75
2021/11/15 13:31:09;;;;;;;;;47.00;34.75;;;;;;;;5033438;28;45458;-75
2021/11/15 13:33:34;;;;;;;;;41.25;34.50;;;;;;;;5033154;28;46687;-75
2021/11/15 13:35:59;;;;;;;;;33.00;31.50;;;;;;;;5015498;28;45589;-75
2021/11/15 13:38:25;;;;;;;;;40.00;34.00;;;;;;;;5035993;28;45409;-75
2021/11/15 13:40:51;;;;;;;;;35.00;28.00;;;;;;;;5017173;28;45549;-75
2021/11/15 13:43:19;;;;;;;;;33.75;32.25;;;;;;;;5032990;28;46042;-75
2021/11/15 13:45:46;;;;;;;;;35.75;29.75;;;;;;;;5031752;28;45466;-76
2021/11/15 13:48:11;;;;;;;;;34.00;29.00;;;;;;;;5032613;28;45500;-75
2021/11/15 13:50:36;;;;;;;;;34.00;28.00;;;;;;;;5015642;28;45413;-75
2021/11/15 13:53:02;;;;;;;;;38.25;33.50;;;;;;;;5033720;28;46747;-75
2021/11/15 13:55:27;;;;;;;;;28.25;24.00;;;;;;;;5032956;28;45403;-75
2021/11/15 13:57:53;;;;;;;;;28.25;23.75;;;;;;;;5033218;28;45432;-75
2021/11/15 14:00:18;;;;;;;;;33.00;29.00;;;;;;;;5033333;28;45480;-75
2021/11/15 14:02:44;;;;;;;;;25.75;24.50;;;;;;;;5032839;28;46482;-75
2021/11/15 14:05:09;;;;;;;;;36.00;29.50;;;;;;;;5033099;28;45400;-74
2021/11/15 14:07:35;;;;;;;;;36.25;31.50;;;;;;;;5033225;28;49569;-75
2021/11/15 14:10:00;;;;;;;;;42.75;32.50;;;;;;;;5032719;28;45354;-75
2021/11/15 14:12:25;;;;;;;;;42.00;32.25;;;;;;;;5032384;28;46124;-76
2021/11/15 14:14:51;;;;;;;;;33.25;28.75;;;;;;;;5032975;28;45334;-76
2021/11/15 14:17:16;;;;;;;;;35.00;30.25;;;;;;;;5029209;28;45402;-76
2021/11/15 14:19:43;;;;;;;;;32.00;29.25;;;;;;;;5032763;28;45221;-74
2021/11/15 14:22:08;;;;;;;;;41.00;32.50;;;;;;;;5032271;28;46351;-74
2021/11/15 14:24:35;;;;;;;;;38.00;33.50;;;;;;;;5032069;28;45459;-76